Time;durP1;ratioP1;P1;durP2;ratioP2;P2;SDS_P1;SDS_P2;PMS_P1;PMS_P2;Temp;Humidity;BMP_temperature;BMP_pressure;BME280_temperature;BME280_humidity;BME280_pressure;Samples;Min_cycle;Max_cycle;Signal;HPM_P1;HPM_P2
2020/12/17 00:01:32;;;;;;;;;;;;;;;4.46;87.97;100418.86;1715788;83;20324;-63
2020/12/17 00:04:00;;;;;;;11.28;7.05;;;;;;;4.44;88.06;100420.60;1713885;83;21246;-63
2020/12/17 00:06:29;;;;;;;13.40;6.53;;;;;;;4.43;88.23;100415.88;1710671;83;21068;-63
2020/12/17 00:08:57;;;;;;;9.60;7.70;;;;;;;4.47;88.33;100420.56;1717452;83;21182;-62
2020/12/17 00:11:24;;;;;;;;;;;;;;;4.48;88.17;100419.68;1715917;82;20987;-63
2020/12/17 00:13:53;;;;;;;;;;;;;;;4.47;88.14;100419.27;1720677;83;20627;-62
2020/12/17 00:16:22;;;;;;;11.10;6.80;;;;;;;4.42;88.07;100420.60;1718393;82;20497;-63
2020/12/17 00:18:50;;;;;;;9.18;6.80;;;;;;;4.39;87.98;100419.79;1710526;82;21226;-62
2020/12/17 00:23:57;;;;;;;11.25;7.97;;;;;;;4.28;87.97;100417.31;1833203;77;22885;-62
2020/12/17 00:26:25;;;;;;;12.03;7.65;;;;;;;4.21;88.03;100428.61;1750814;81;21577;-62
2020/12/17 00:28:54;;;;;;;13.25;7.05;;;;;;;4.19;88.14;100431.19;1757408;80;21238;-62
2020/12/17 00:31:24;;;;;;;11.10;7.08;;;;;;;4.19;88.05;100429.90;1768190;79;21053;-62
2020/12/17 00:33:53;;;;;;;13.00;8.10;;;;;;;4.17;88.06;100436.83;1765608;80;21909;-62
2020/12/17 00:36:25;;;;;;;10.85;7.15;;;;;;;4.18;88.17;100437.25;1774929;79;21037;-62
2020/12/17 00:38:53;;;;;;;10.60;7.72;;;;;;;4.23;88.23;100436.77;1753672;80;21106;-62
2020/12/17 00:41:21;;;;;;;10.55;7.53;;;;;;;4.26;88.25;100434.15;1748892;80;21162;-63
2020/12/17 00:43:51;;;;;;;14.33;7.58;;;;;;;4.29;88.13;100433.70;1775248;80;20994;-62
2020/12/17 00:46:20;;;;;;;16.85;8.58;;;;;;;4.28;88.14;100438.00;1746615;81;21050;-62
2020/12/17 00:48:50;;;;;;;14.47;8.53;;;;;;;4.26;88.04;100441.05;1741265;81;21084;-62
2020/12/17 00:51:22;;;;;;;14.90;7.95;;;;;;;4.26;88.07;100443.20;1756600;81;20983;-62
2020/12/17 00:53:50;;;;;;;14.43;8.28;;;;;;;4.27;88.01;100440.17;1739250;81;21489;-62
2020/12/17 00:56:19;;;;;;;12.47;7.72;;;;;;;4.24;87.91;100441.05;1748747;81;21049;-62
2020/12/17 00:58:47;;;;;;;12.50;7.55;;;;;;;4.22;87.83;100433.74;1747169;81;21072;-62
2020/12/17 01:01:15;;;;;;;8.45;6.55;;;;;;;4.20;87.89;100435.51;1759216;80;21189;-62
2020/12/17 01:03:43;;;;;;;11.33;6.30;;;;;;;4.25;88.04;100438.88;1753620;80;21161;-62
2020/12/17 01:06:12;;;;;;;11.68;6.33;;;;;;;4.24;87.95;100442.34;1750723;81;21212;-62
2020/12/17 01:08:40;;;;;;;8.93;6.20;;;;;;;4.24;87.99;100441.50;1744049;81;21029;-62
2020/12/17 01:11:07;;;;;;;11.28;6.60;;;;;;;4.21;87.98;100439.80;1745111;81;21574;-62
2020/12/17 01:13:35;;;;;;;8.08;6.10;;;;;;;4.19;87.94;100438.95;1734923;81;20980;-62
2020/12/17 01:16:03;;;;;;;8.33;5.87;;;;;;;4.19;87.99;100441.53;1743344;81;21090;-62
2020/12/17 01:18:30;;;;;;;10.85;6.50;;;;;;;4.21;88.05;100432.04;1739058;81;21230;-62
2020/12/17 01:20:58;;;;;;;9.33;6.17;;;;;;;4.22;88.05;100436.33;1741319;81;21203;-62
2020/12/17 01:23:26;;;;;;;13.03;7.50;;;;;;;4.25;88.04;100432.86;1747101;81;21010;-62
2020/12/17 01:25:55;;;;;;;13.55;8.73;;;;;;;4.22;87.99;100433.74;1741239;81;21180;-63
2020/12/17 01:28:23;;;;;;;12.68;8.25;;;;;;;4.21;87.96;100433.33;1744406;81;21268;-62
2020/12/17 01:30:52;;;;;;;17.37;9.13;;;;;;;4.24;88.11;100443.64;1744001;81;21242;-62
2020/12/17 01:33:20;;;;;;;12.53;7.85;;;;;;;4.25;88.10;100438.88;1755210;81;21015;-62
2020/12/17 01:35:49;;;;;;;16.37;9.05;;;;;;;4.29;88.15;100437.14;1751966;80;21158;-62
2020/12/17 01:38:17;;;;;;;18.15;9.38;;;;;;;4.29;88.04;100433.70;1760465;79;21113;-62
2020/12/17 01:40:49;;;;;;;19.60;10.05;;;;;;;4.24;87.99;100442.34;1756510;81;21260;-63
2020/12/17 01:43:17;;;;;;;17.30;9.50;;;;;;;4.23;88.08;100445.81;1740955;81;21209;-62
2020/12/17 01:45:44;;;;;;;17.60;9.08;;;;;;;4.23;88.08;100434.19;1765311;80;21065;-63
2020/12/17 01:48:15;;;;;;;14.05;9.53;;;;;;;4.20;87.96;100429.05;1755410;81;20982;-62
2020/12/17 01:50:47;;;;;;;16.00;10.13;;;;;;;4.18;87.97;100432.07;1745284;81;21163;-62
2020/12/17 01:53:17;;;;;;;13.62;9.08;;;;;;;4.20;88.08;100431.63;1747301;80;21108;-62
2020/12/17 01:55:45;;;;;;;11.75;8.23;;;;;;;4.21;88.06;100426.87;1757173;80;21273;-62
2020/12/17 01:58:18;;;;;;;14.50;8.55;;;;;;;4.22;88.06;100433.74;1744745;81;21214;-62
2020/12/17 02:00:53;;;;;;;11.30;7.55;;;;;;;4.24;88.21;100420.81;1755332;81;21563;-62
2020/12/17 02:03:22;;;;;;;9.63;7.85;;;;;;;4.28;88.15;100416.46;1745486;82;21139;-62
2020/12/17 02:05:53;;;;;;;11.08;7.33;;;;;;;4.28;88.04;100425.07;1764496;80;21112;-62
2020/12/17 02:08:22;;;;;;;13.30;8.25;;;;;;;4.29;88.07;100420.78;1751657;80;21219;-62
2020/12/17 02:10:50;;;;;;;12.13;7.28;;;;;;;4.31;88.10;100416.42;1765890;80;21653;-62
2020/12/17 02:13:33;;;;;;;11.38;7.60;;;;;;;4.34;88.08;100418.98;1773629;80;21183;-62
2020/12/17 02:16:07;;;;;;;12.33;7.47;;;;;;;4.33;88.01;100428.91;1774346;80;21092;-63
2020/12/17 02:18:36;;;;;;;15.68;8.35;;;;;;;4.34;88.06;100415.09;1755552;81;21176;-62
2020/12/17 02:21:04;;;;;;;9.25;7.00;;;;;;;4.34;88.05;100413.80;1786476;80;21999;-62
2020/12/17 02:23:34;;;;;;;11.20;7.58;;;;;;;4.34;88.07;100416.39;1774060;80;21175;-62
2020/12/17 02:26:01;;;;;;;13.43;7.92;;;;;;;4.33;88.12;100409.52;1756481;80;21143;-62
2020/12/17 02:28:31;;;;;;;10.45;7.25;;;;;;;4.36;88.22;100408.19;1765363;80;21045;-62
2020/12/17 02:31:00;;;;;;;10.13;7.37;;;;;;;4.38;88.17;100415.50;1763344;80;21116;-62
2020/12/17 02:33:30;;;;;;;10.20;6.30;;;;;;;4.39;88.17;100402.98;1772977;80;21194;-62
2020/12/17 02:35:59;;;;;;;10.82;6.53;;;;;;;4.40;88.15;100406.01;1766147;80;21002;-62
2020/12/17 02:38:27;;;;;;;12.30;6.17;;;;;;;4.42;88.11;100402.95;1764968;80;21001;-62
2020/12/17 02:40:55;;;;;;;10.10;6.00;;;;;;;4.42;87.99;100401.66;1766451;80;21009;-62
2020/12/17 02:43:24;;;;;;;10.68;6.35;;;;;;;4.41;88.03;100392.20;1768874;80;21020;-62
2020/12/17 02:45:52;;;;;;;7.60;5.40;;;;;;;4.42;88.04;100394.75;1767145;79;21194;-62
2020/12/17 02:48:20;;;;;;;9.33;6.15;;;;;;;4.44;88.09;100390.42;1766604;79;21124;-61
2020/12/17 02:50:47;;;;;;;11.15;6.20;;;;;;;4.44;88.00;100381.38;1764440;80;21152;-62
2020/12/17 02:53:16;;;;;;;9.53;5.83;;;;;;;4.44;87.95;100385.69;1752821;80;21605;-62
2020/12/17 02:55:44;;;;;;;9.90;5.80;;;;;;;4.44;88.07;100386.98;1772705;80;21116;-62
2020/12/17 02:58:14;;;;;;;8.73;6.05;;;;;;;4.46;88.04;100393.00;1762402;80;21579;-62
2020/12/17 03:00:42;;;;;;;8.95;6.12;;;;;;;4.48;88.05;100387.36;1771160;79;21546;-62
2020/12/17 03:03:10;;;;;;;10.45;5.45;;;;;;;4.50;87.98;100385.62;1717728;82;21060;-62
2020/12/17 03:05:38;;;;;;;7.65;5.70;;;;;;;4.49;87.92;100382.63;1696745;82;21052;-62
2020/12/17 03:08:07;;;;;;;10.08;6.35;;;;;;;4.48;87.89;100383.48;1732868;82;21148;-62
2020/12/17 03:10:35;;;;;;;10.00;5.45;;;;;;;4.48;87.93;100377.01;1729488;82;21150;-62
2020/12/17 03:13:04;;;;;;;7.92;5.55;;;;;;;4.47;87.91;100374.02;1723314;82;21162;-62
2020/12/17 03:15:32;;;;;;;8.90;5.65;;;;;;;4.45;87.90;100370.59;1731432;82;21152;-61
2020/12/17 03:17:59;;;;;;;7.75;5.42;;;;;;;4.46;87.89;100372.31;1725296;82;21576;-62
2020/12/17 03:20:28;;;;;;;;;;;;;;;4.46;87.92;100372.31;1739913;82;21009;-62
2020/12/17 03:22:57;;;;;;;7.65;5.33;;;;;;;4.47;87.90;100381.77;1737786;81;22089;-62
2020/12/17 03:25:24;;;;;;;8.80;5.55;;;;;;;4.46;87.91;100380.92;1742286;81;21123;-62
2020/12/17 03:27:52;;;;;;;9.05;5.90;;;;;;;4.46;87.91;100382.66;1742938;81;21041;-62
2020/12/17 03:30:20;;;;;;;8.05;5.35;;;;;;;4.48;87.99;100379.59;1747652;81;21238;-62
2020/12/17 03:32:50;;;;;;;7.20;5.55;;;;;;;4.51;88.01;100375.71;1740299;81;21190;-62
2020/12/17 03:35:18;;;;;;;6.85;4.87;;;;;;;4.52;87.89;100369.66;1765720;79;22159;-62
2020/12/17 03:37:49;;;;;;;9.15;5.60;;;;;;;4.54;87.85;100373.08;1750642;81;21578;-62
2020/12/17 03:40:18;;;;;;;8.10;5.67;;;;;;;4.54;87.82;100373.08;1747509;81;21056;-62
2020/12/17 03:42:46;;;;;;;8.50;5.85;;;;;;;4.54;87.84;100367.91;1758742;81;21127;-62
2020/12/17 03:45:16;;;;;;;11.83;5.78;;;;;;;4.54;87.78;100360.16;1767247;80;20985;-62
2020/12/17 03:47:45;;;;;;;8.68;6.45;;;;;;;4.52;87.79;100367.06;1747901;80;21316;-62
2020/12/17 03:50:14;;;;;;;8.88;6.47;;;;;;;4.52;87.81;100370.09;1779668;80;21136;-62
2020/12/17 03:52:42;;;;;;;8.95;6.45;;;;;;;4.51;87.74;100365.78;1758661;79;21012;-62
2020/12/17 03:55:11;;;;;;;8.48;6.40;;;;;;;4.48;87.71;100358.50;1751928;81;21055;-62
2020/12/17 03:57:40;;;;;;;10.80;6.55;;;;;;;4.47;87.71;100358.50;1757975;80;21188;-63
2020/12/17 04:00:08;;;;;;;12.33;6.42;;;;;;;4.46;87.73;100359.39;1761921;80;22094;-63
2020/12/17 04:02:36;;;;;;;8.63;6.05;;;;;;;4.45;87.71;100360.24;1780609;80;21005;-62
2020/12/17 04:05:05;;;;;;;8.83;6.78;;;;;;;4.44;87.75;100355.95;1775495;80;21072;-62
2020/12/17 04:07:33;;;;;;;12.93;6.92;;;;;;;4.43;87.75;100352.97;1751657;81;21061;-62
2020/12/17 04:10:02;;;;;;;9.95;7.42;;;;;;;4.42;87.69;100352.53;1752610;81;21011;-62
2020/12/17 04:12:31;;;;;;;10.30;7.22;;;;;;;4.40;87.73;100353.00;1730017;81;21219;-62
2020/12/17 04:14:59;;;;;;;10.68;6.70;;;;;;;4.40;87.73;100351.71;1763841;80;21006;-62
2020/12/17 04:17:28;;;;;;;11.90;7.50;;;;;;;4.39;87.69;100350.83;1742070;81;21112;-62
2020/12/17 04:19:56;;;;;;;11.12;7.15;;;;;;;4.40;87.71;100353.00;1741188;81;21048;-62
2020/12/17 04:22:24;;;;;;;8.35;6.78;;;;;;;4.40;87.69;100351.71;1733240;81;21188;-62
2020/12/17 04:24:51;;;;;;;11.65;6.97;;;;;;;4.38;87.63;100345.69;1738072;81;21175;-62
2020/12/17 04:27:19;;;;;;;9.13;6.62;;;;;;;4.38;87.63;100343.11;1735786;81;21203;-62
2020/12/17 04:29:47;;;;;;;10.85;6.90;;;;;;;4.36;87.65;100345.70;1750631;81;20983;-62
2020/12/17 04:32:16;;;;;;;11.38;7.65;;;;;;;4.35;87.66;100342.70;1745625;81;21085;-61
2020/12/17 04:34:45;;;;;;;10.15;7.67;;;;;;;4.35;87.69;100352.20;1742177;81;21206;-62
2020/12/17 04:37:13;;;;;;;9.75;6.50;;;;;;;4.35;87.66;100350.91;1752535;81;21242;-62
2020/12/17 04:39:41;;;;;;;9.13;6.97;;;;;;;4.36;87.70;100355.19;1750379;81;21083;-62
2020/12/17 04:42:09;;;;;;;11.22;7.35;;;;;;;4.35;87.69;100348.31;1753389;81;21139;-62
2020/12/17 04:44:38;;;;;;;9.98;6.70;;;;;;;4.35;87.70;100343.15;1727259;81;21087;-62
2020/12/17 04:47:06;;;;;;;8.35;6.53;;;;;;;4.36;87.69;100348.72;1747434;81;21163;-62
2020/12/17 04:49:47;;;;;;;14.07;7.75;;;;;;;4.37;87.67;100346.55;1756160;81;21265;-61
2020/12/17 04:52:16;;;;;;;11.33;7.35;;;;;;;4.36;87.65;100347.44;1742635;81;21021;-62
2020/12/17 04:54:44;;;;;;;12.10;7.37;;;;;;;4.35;87.68;100356.08;1748987;81;21167;-62
2020/12/17 04:57:15;;;;;;;10.08;7.08;;;;;;;4.33;87.60;100347.03;1748832;81;22144;-62
2020/12/17 04:59:50;;;;;;;11.70;8.25;;;;;;;4.33;87.54;100350.06;1756027;81;21094;-62
2020/12/17 05:02:21;;;;;;;10.63;6.92;;;;;;;4.29;87.57;100350.54;1748359;81;21215;-62
2020/12/17 05:04:51;;;;;;;8.95;7.15;;;;;;;4.28;87.56;100349.25;1746897;81;21144;-63
2020/12/17 05:07:23;;;;;;;9.38;7.83;;;;;;;4.26;87.55;100346.70;1745445;81;21816;-61
2020/12/17 05:09:51;;;;;;;11.43;7.58;;;;;;;4.20;87.52;100339.88;1749077;81;21080;-62
2020/12/17 05:12:20;;;;;;;15.40;9.13;;;;;;;4.18;87.52;100336.44;1746352;81;21021;-61
2020/12/17 05:14:49;;;;;;;12.95;9.05;;;;;;;4.15;87.52;100330.02;1748660;81;21207;-62
2020/12/17 05:17:17;;;;;;;12.18;8.75;;;;;;;4.13;87.57;100332.20;1758239;81;21119;-62
2020/12/17 05:19:46;;;;;;;14.90;10.30;;;;;;;4.10;87.59;100326.62;1753317;81;21226;-62
2020/12/17 05:22:14;;;;;;;20.45;11.88;;;;;;;4.07;87.59;100327.95;1762149;81;21161;-62
2020/12/17 05:24:46;;;;;;;20.85;13.50;;;;;;;4.05;87.59;100316.77;1733226;81;21050;-61
2020/12/17 05:27:15;;;;;;;27.20;14.78;;;;;;;4.02;87.60;100324.55;1719719;81;21260;-62
2020/12/17 05:29:43;;;;;;;23.52;13.72;;;;;;;3.99;87.54;100334.92;1736752;81;21054;-63
2020/12/17 05:32:15;;;;;;;21.20;11.57;;;;;;;3.91;87.35;100341.90;1729688;82;21539;-62
2020/12/17 05:34:45;;;;;;;18.50;11.15;;;;;;;3.88;87.58;100341.93;1728812;81;21181;-62
2020/12/17 05:37:14;;;;;;;16.87;10.70;;;;;;;3.88;87.75;100341.93;1726228;81;21098;-62
2020/12/17 05:39:45;;;;;;;14.33;10.35;;;;;;;3.91;87.85;100341.90;1723289;81;21202;-62
2020/12/17 05:42:13;;;;;;;14.93;11.22;;;;;;;3.96;87.94;100340.12;1726556;82;21144;-62
2020/12/17 05:44:41;;;;;;;18.05;12.40;;;;;;;4.01;87.98;100340.94;1696788;82;21150;-62
2020/12/17 05:47:13;;;;;;;16.82;12.68;;;;;;;4.07;87.98;100342.61;1729030;82;21369;-62
2020/12/17 05:49:41;;;;;;;20.90;12.88;;;;;;;4.13;88.00;100340.80;1731421;81;21291;-62
2020/12/17 05:52:20;;;;;;;20.72;13.65;;;;;;;4.18;88.00;100341.61;1729239;81;21194;-61
2020/12/17 05:55:00;;;;;;;20.32;13.32;;;;;;;4.23;88.00;100345.00;1734636;81;21576;-62
2020/12/17 05:57:29;;;;;;;22.15;14.55;;;;;;;4.28;87.89;100338.91;1724193;82;21121;-62
2020/12/17 06:00:05;;;;;;;20.77;14.18;;;;;;;4.31;87.84;100329.82;1722870;81;21044;-62
2020/12/17 06:02:35;;;;;;;21.55;14.90;;;;;;;4.31;87.84;100333.70;1731127;81;21236;-62
2020/12/17 06:05:15;;;;;;;27.20;15.80;;;;;;;4.33;87.83;100329.38;1729262;81;21211;-62
2020/12/17 06:07:47;;;;;;;26.57;16.35;;;;;;;4.33;87.86;100321.63;1720246;81;21623;-63
2020/12/17 06:10:25;;;;;;;27.95;18.37;;;;;;;4.34;87.95;100331.08;1716014;81;21565;-61
2020/12/17 06:13:01;;;;;;;30.82;19.15;;;;;;;4.36;87.96;100322.42;1736220;81;21611;-61
2020/12/17 06:15:32;;;;;;;33.15;22.82;;;;;;;4.36;87.95;100327.59;1729487;81;21053;-62
2020/12/17 06:18:02;;;;;;;36.65;22.40;;;;;;;4.37;87.97;100312.94;1738323;81;21213;-62
2020/12/17 06:20:33;;;;;;;34.58;21.02;;;;;;;4.37;87.97;100310.35;1720796;81;21162;-62
2020/12/17 06:23:05;;;;;;;36.58;20.52;;;;;;;4.37;87.98;100315.52;1719062;81;21154;-62
2020/12/17 06:25:36;;;;;;;31.23;20.80;;;;;;;4.37;88.02;100310.35;1746267;81;21218;-62
2020/12/17 06:28:05;;;;;;;32.17;20.17;;;;;;;4.38;88.01;100306.91;1752655;81;21581;-62
2020/12/17 06:30:33;;;;;;;33.50;20.55;;;;;;;4.36;88.00;100306.06;1746524;81;21161;-62
2020/12/17 06:33:04;;;;;;;34.45;19.55;;;;;;;4.35;88.03;100301.78;1746888;81;21066;-62
2020/12/17 06:35:53;;;;;;;34.20;19.92;;;;;;;4.33;88.09;100295.77;1757914;81;21616;-62
2020/12/17 06:38:28;;;;;;;36.15;21.85;;;;;;;4.35;88.12;100301.78;1740550;81;21584;-62
2020/12/17 06:41:15;;;;;;;39.03;22.13;;;;;;;4.34;88.13;100303.93;1751662;81;21591;-62
2020/12/17 06:43:44;;;;;;;42.78;22.35;;;;;;;4.35;88.21;100301.78;1753298;81;21420;-62
2020/12/17 06:46:34;;;;;;;38.10;22.58;;;;;;;4.35;88.21;100305.22;1746024;81;21004;-62
2020/12/17 06:49:06;;;;;;;34.13;20.45;;;;;;;4.36;88.21;100304.33;1753309;81;21017;-63
2020/12/17 06:51:42;;;;;;;36.45;21.75;;;;;;;4.38;88.28;100300.45;1752075;81;21159;-62
2020/12/17 06:54:20;;;;;;;35.45;22.13;;;;;;;4.38;88.27;100297.42;1755184;81;21616;-63
2020/12/17 06:57:16;;;;;;;32.78;21.10;;;;;;;4.40;88.26;100302.58;1749336;81;21606;-62
2020/12/17 07:00:10;;;;;;;35.40;20.45;;;;;;;4.41;88.26;100299.11;1737000;81;22199;-63
2020/12/17 07:02:41;;;;;;;37.80;22.45;;;;;;;4.41;88.24;100304.28;1740070;80;21103;-63
2020/12/17 07:05:36;;;;;;;39.95;24.43;;;;;;;4.47;88.27;100306.78;1823636;76;22892;-63
2020/12/17 07:08:05;;;;;;;43.33;23.73;;;;;;;4.43;88.29;100310.30;1806970;78;21593;-63
2020/12/17 07:10:33;;;;;;;44.42;25.17;;;;;;;4.44;88.25;100302.95;1800087;77;21453;-63
2020/12/17 07:13:01;;;;;;;45.95;25.43;;;;;;;4.44;88.19;100308.12;1779958;78;21102;-62
2020/12/17 07:15:35;;;;;;;41.00;23.50;;;;;;;4.43;88.21;100315.47;1800916;77;21322;-63
2020/12/17 07:18:26;;;;;;;43.20;25.00;;;;;;;4.42;88.25;100305.98;1807452;77;21036;-63
2020/12/17 07:21:07;;;;;;;42.93;24.47;;;;;;;4.41;88.22;100312.89;1801970;78;21597;-63
2020/12/17 07:23:40;;;;;;;49.63;25.50;;;;;;;4.41;88.24;100312.04;1797223;78;21251;-62
2020/12/17 07:26:14;;;;;;;67.27;41.00;;;;;;;4.41;88.25;100310.30;1801692;77;21063;-64
2020/12/17 07:28:53;;;;;;;120.13;66.95;;;;;;;4.42;88.25;100305.98;1803395;78;21600;-62
2020/12/17 07:31:27;;;;;;;151.30;106.97;;;;;;;4.42;88.26;100304.69;1804385;78;21206;-63
2020/12/17 07:33:57;;;;;;;131.07;88.20;;;;;;;4.42;88.28;100304.25;1796336;78;21103;-63
2020/12/17 07:36:46;;;;;;;106.90;66.75;;;;;;;4.43;88.29;100305.13;1814308;78;21399;-63
2020/12/17 07:39:14;;;;;;;86.60;53.78;;;;;;;4.43;88.30;100308.56;1806226;77;21688;-64
2020/12/17 07:41:43;;;;;;;130.85;91.53;;;;;;;4.44;88.32;100304.23;1804168;78;21054;-63
2020/12/17 07:44:12;;;;;;;111.52;74.55;;;;;;;4.47;88.37;100309.37;1812927;78;21095;-63
2020/12/17 07:46:42;;;;;;;76.82;48.95;;;;;;;4.49;88.37;100306.34;1794017;77;21116;-64
2020/12/17 07:49:28;;;;;;;80.15;51.50;;;;;;;4.51;88.35;100303.30;1804548;78;22016;-62
2020/12/17 07:51:57;;;;;;;72.00;42.40;;;;;;;4.54;88.36;100305.84;1799402;78;21001;-62
2020/12/17 07:54:25;;;;;;;97.57;63.78;;;;;;;4.57;88.32;100304.95;1805775;78;21198;-64
2020/12/17 07:57:01;;;;;;;80.32;50.60;;;;;;;4.59;88.34;100315.66;1801624;77;21055;-63
2020/12/17 07:59:29;;;;;;;113.25;72.55;;;;;;;4.61;88.36;100312.63;1808083;77;21631;-64
2020/12/17 08:02:04;;;;;;;105.47;68.00;;;;;;;4.64;88.30;100306.11;1801599;77;21192;-63
2020/12/17 08:04:33;;;;;;;72.47;47.48;;;;;;;4.64;88.29;100309.14;1794404;77;21201;-63
2020/12/17 08:07:09;;;;;;;51.55;32.15;;;;;;;4.65;88.34;100296.62;1818625;77;21048;-63
2020/12/17 08:09:38;;;;;;;49.55;27.30;;;;;;;4.69;88.31;100297.86;1822855;77;21032;-62
2020/12/17 08:12:10;;;;;;;48.23;26.95;;;;;;;4.69;88.25;100303.03;1809377;77;21154;-62
2020/12/17 08:14:39;;;;;;;47.78;26.68;;;;;;;4.74;88.31;100302.13;1805445;77;21683;-62
2020/12/17 08:17:10;;;;;;;38.28;24.55;;;;;;;4.74;88.27;100299.55;1795752;77;20980;-62
2020/12/17 08:19:38;;;;;;;43.30;24.12;;;;;;;4.75;88.22;100299.95;1805677;77;21000;-63
2020/12/17 08:22:08;;;;;;;44.93;27.15;;;;;;;4.75;88.25;100299.50;1809775;77;21158;-63
2020/12/17 08:24:40;;;;;;;52.88;32.35;;;;;;;4.78;88.29;100297.31;1825013;77;21193;-63
2020/12/17 08:27:08;;;;;;;50.12;30.10;;;;;;;4.80;88.25;100304.63;1819099;77;21754;-63
2020/12/17 08:29:36;;;;;;;49.23;31.33;;;;;;;4.83;88.24;100301.99;1800434;77;21005;-63
2020/12/17 08:32:09;;;;;;;43.05;27.67;;;;;;;4.84;88.19;100299.36;1813978;77;21146;-62
2020/12/17 08:34:40;;;;;;;44.95;26.97;;;;;;;4.85;88.14;100304.13;1802009;77;21106;-63
2020/12/17 08:37:17;;;;;;;44.93;26.45;;;;;;;4.85;88.17;100295.06;1808092;77;21186;-63
2020/12/17 08:39:45;;;;;;;43.13;26.73;;;;;;;4.85;88.10;100300.25;1806161;77;21250;-63
2020/12/17 08:42:15;;;;;;;41.65;23.15;;;;;;;4.85;88.22;100297.21;1802420;77;21229;-64
2020/12/17 08:44:45;;;;;;;40.15;25.05;;;;;;;4.88;88.19;100298.91;1810911;77;21266;-64
2020/12/17 08:47:14;;;;;;;44.15;25.75;;;;;;;4.89;88.16;100301.89;1808562;77;21648;-63
2020/12/17 08:49:44;;;;;;;51.30;34.78;;;;;;;4.90;88.12;100298.00;1798769;77;21154;-63
2020/12/17 08:52:30;;;;;;;56.28;36.55;;;;;;;4.90;88.15;100293.24;1809190;77;21262;-62
2020/12/17 08:55:07;;;;;;;57.13;35.88;;;;;;;4.92;88.11;100288.91;1800061;77;21824;-63
2020/12/17 08:57:36;;;;;;;128.82;79.53;;;;;;;4.93;88.08;100291.93;1807396;77;20997;-63
2020/12/17 09:00:16;;;;;;;70.28;43.25;;;;;;;4.94;88.13;100288.01;1806179;77;21613;-63
2020/12/17 09:02:45;;;;;;;50.35;31.40;;;;;;;4.98;88.17;100290.55;1814458;77;21609;-63
2020/12/17 09:05:14;;;;;;;45.33;28.52;;;;;;;5.02;88.12;100286.61;1819712;77;21195;-64
2020/12/17 09:10:21;;;;;;;39.83;23.67;;;;;;;5.10;88.01;100280.87;1836588;76;22138;-63
2020/12/17 09:12:55;;;;;;;40.88;23.35;;;;;;;5.08;88.08;100292.98;1745878;80;21044;-64
2020/12/17 09:15:31;;;;;;;41.60;22.73;;;;;;;5.16;88.14;100283.36;1835840;76;22783;-63
2020/12/17 09:18:12;;;;;;;37.55;21.62;;;;;;;5.16;88.13;100284.66;1800749;77;21621;-63
2020/12/17 09:20:39;;;;;;;32.83;19.75;;;;;;;5.21;88.06;100279.82;1812077;77;21229;-62
2020/12/17 09:23:08;;;;;;;31.40;19.48;;;;;;;5.27;88.06;100286.22;1809342;77;21277;-63
2020/12/17 09:25:36;;;;;;;27.22;17.20;;;;;;;5.28;87.92;100285.33;1812391;77;21059;-62
2020/12/17 09:28:05;;;;;;;29.95;18.00;;;;;;;5.31;88.03;100282.69;1807576;77;21012;-62
2020/12/17 09:30:34;;;;;;;30.82;17.48;;;;;;;5.37;87.99;100285.17;1777137;79;20965;-63
2020/12/17 09:33:03;;;;;;;35.03;23.87;;;;;;;5.41;87.90;100279.52;1811487;77;21197;-62
2020/12/17 09:35:36;;;;;;;27.62;18.62;;;;;;;5.44;87.90;100282.91;1807222;77;21595;-64
2020/12/17 09:38:13;;;;;;;29.05;17.55;;;;;;;5.49;87.91;100281.09;1801920;77;21060;-64
2020/12/17 09:40:43;;;;;;;40.73;26.35;;;;;;;5.56;87.91;100282.67;1806802;77;21044;-64
2020/12/17 09:43:16;;;;;;;32.48;18.40;;;;;;;5.62;87.87;100281.70;1804763;77;21605;-64
2020/12/17 09:45:49;;;;;;;23.18;15.08;;;;;;;5.67;87.88;100279.05;1804768;77;21404;-62
2020/12/17 09:48:25;;;;;;;24.50;14.18;;;;;;;5.73;87.78;100284.11;1801070;77;22008;-63
2020/12/17 09:51:08;;;;;;;25.62;15.63;;;;;;;5.78;87.67;100273.22;1801527;78;21447;-63
2020/12/17 09:53:42;;;;;;;24.92;15.23;;;;;;;5.83;87.76;100277.88;1805615;77;21541;-63
2020/12/17 09:56:15;;;;;;;25.80;15.80;;;;;;;5.91;87.70;100282.90;1802979;77;21155;-63
2020/12/17 09:58:46;;;;;;;27.07;16.65;;;;;;;5.97;87.69;100268.13;1797059;77;21198;-64
2020/12/17 10:01:14;;;;;;;25.75;16.17;;;;;;;5.99;87.57;100271.55;1799673;77;21411;-63
2020/12/17 10:03:42;;;;;;;;;;;;;;;6.02;87.58;100271.50;1814481;77;20988;-63
2020/12/17 10:06:09;;;;;;;24.02;14.58;;;;;;;6.05;87.54;100265.39;1801601;77;21070;-63
2020/12/17 10:08:38;;;;;;;21.15;12.20;;;;;;;6.10;87.57;100262.69;1799425;77;21140;-63
2020/12/17 10:11:09;;;;;;;23.62;13.48;;;;;;;6.15;87.41;100263.45;1799157;78;22095;-63
2020/12/17 10:13:37;;;;;;;25.72;14.13;;;;;;;6.17;87.40;100256.52;1811463;77;21206;-64
2020/12/17 10:16:25;;;;;;;24.67;14.40;;;;;;;6.19;87.35;100256.02;1810153;77;22323;-64
2020/12/17 10:18:54;;;;;;;29.15;15.58;;;;;;;6.23;87.41;100251.19;1649787;85;21185;-63
2020/12/17 10:21:25;;;;;;;23.77;15.00;;;;;;;6.28;87.30;100256.69;1649717;85;21161;-64
2020/12/17 10:23:56;;;;;;;28.98;15.05;;;;;;;6.31;87.29;100251.88;1657043;85;22086;-64
2020/12/17 10:26:27;;;;;;;26.57;16.12;;;;;;;6.30;87.16;100246.27;1651282;85;21679;-63
2020/12/17 10:28:55;;;;;;;27.07;14.90;;;;;;;6.27;86.97;100250.23;1647607;85;21170;-64
2020/12/17 10:31:23;;;;;;;28.45;16.93;;;;;;;6.25;87.06;100246.84;1665732;84;21210;-63
2020/12/17 10:33:52;;;;;;;29.00;17.52;;;;;;;6.23;87.03;100240.81;1656321;83;21569;-64
2020/12/17 10:36:23;;;;;;;29.75;16.15;;;;;;;6.24;87.02;100242.52;1656986;83;21282;-63
2020/12/17 10:38:51;;;;;;;34.33;17.75;;;;;;;6.23;87.02;100238.22;1628017;86;21263;-63
2020/12/17 10:41:30;;;;;;;29.20;16.48;;;;;;;6.28;87.15;100237.69;1620494;87;21141;-64
2020/12/17 10:44:00;;;;;;;29.82;18.02;;;;;;;6.30;86.92;100237.19;1625354;86;21221;-63
2020/12/17 10:46:29;;;;;;;29.60;18.07;;;;;;;6.27;86.83;100234.66;1630319;86;21894;-64
2020/12/17 10:49:03;;;;;;;27.42;15.85;;;;;;;6.26;86.99;100235.56;1625956;86;21719;-63
2020/12/17 10:51:31;;;;;;;31.30;18.25;;;;;;;6.26;87.05;100229.08;1624716;87;21603;-64
2020/12/17 10:54:03;;;;;;;33.55;21.85;;;;;;;6.28;87.08;100225.57;1622689;87;21193;-63
2020/12/17 10:56:30;;;;;;;35.65;19.40;;;;;;;6.28;86.97;100226.02;1623569;87;21244;-64
2020/12/17 10:58:58;;;;;;;32.70;19.67;;;;;;;6.31;86.96;100225.95;1623614;87;21180;-64
2020/12/17 11:01:26;;;;;;;35.73;19.62;;;;;;;6.30;86.97;100219.03;1621258;87;21372;-65
2020/12/17 11:03:55;;;;;;;31.52;18.55;;;;;;;6.29;86.80;100223.83;1621732;87;23925;-64
2020/12/17 11:06:23;;;;;;;30.05;18.40;;;;;;;6.30;86.87;100213.84;1620143;87;21315;-64
2020/12/17 11:08:52;;;;;;;;;;;;;;;6.28;86.92;100213.05;1624840;87;21224;-65
2020/12/17 11:11:19;;;;;;;32.00;19.65;;;;;;;6.27;86.83;100207.44;1614823;87;20576;-64
2020/12/17 11:13:50;;;;;;;32.88;17.98;;;;;;;6.28;86.88;100211.30;1622427;86;21720;-64
2020/12/17 11:16:21;;;;;;;31.68;17.48;;;;;;;6.28;86.95;100202.67;1612603;87;21707;-64
2020/12/17 11:18:49;;;;;;;34.23;18.35;;;;;;;6.29;86.90;100195.30;1637883;85;21196;-64
2020/12/17 11:21:21;;;;;;;23.75;16.00;;;;;;;6.32;86.86;100193.08;1664742;85;21170;-63
2020/12/17 11:23:50;;;;;;;33.65;19.23;;;;;;;6.31;86.89;100184.45;1664934;84;21208;-64
2020/12/17 11:26:20;;;;;;;31.40;18.62;;;;;;;6.29;86.75;100182.33;1657063;85;21431;-63
2020/12/17 11:28:50;;;;;;;28.87;16.65;;;;;;;6.27;86.70;100190.58;1660459;85;21219;-64
2020/12/17 11:31:18;;;;;;;29.52;17.15;;;;;;;6.26;86.87;100191.48;1655445;85;21055;-63
2020/12/17 11:33:46;;;;;;;27.55;17.00;;;;;;;6.24;86.79;100192.80;1660687;85;21171;-64
2020/12/17 11:36:14;;;;;;;26.75;16.10;;;;;;;6.22;86.75;100187.27;1662892;84;21545;-63
2020/12/17 11:38:41;;;;;;;27.93;16.40;;;;;;;6.21;86.80;100177.75;1661792;84;21227;-64
2020/12/17 11:41:14;;;;;;;30.48;17.12;;;;;;;6.24;86.82;100182.42;1665329;84;21191;-63
2020/12/17 11:43:42;;;;;;;22.73;15.03;;;;;;;6.24;86.79;100180.28;1671891;84;21156;-64
2020/12/17 11:46:13;;;;;;;26.35;15.53;;;;;;;6.25;86.80;100176.81;1672101;84;21205;-63